sensor_id;sensor_type;location;lat;lon;timestamp;pressure;altitude;pressure_sealevel;temperature
74485;BMP280;62942;52.462;10.846;2023-05-10T00:01:00;100080;;;
74485;BMP280;62942;52.462;10.846;2023-05-10T00:02:00;100080;;;
74485;BMP280;62942;52.462;10.846;2023-05-10T00:03:10;100080;;;
74485;BMP280;62942;52.462;10.846;2023-05-10T00:04:20;100070;;;
74485;BMP280;62942;52.462;10.846;2023-05-10T00:05:30;100070;;;
74485;BMP280;62942;52.462;10.846;2023-05-10T00:06:30;100070;;;
74485;BMP280;62942;52.462;10.846;2023-05-10T00:07:40;100070;;;
74485;BMP280;62942;52.462;10.846;2023-05-10T00:08:50;100080;;;
74485;BMP280;62942;52.462;10.846;2023-05-10T00:09:50;100070;;;
74485;BMP280;62942;52.462;10.846;2023-05-10T00:11:00;100070;;;
74485;BMP280;62942;52.462;10.846;2023-05-10T00:12:10;100070;;;
74485;BMP280;62942;52.462;10.846;2023-05-10T00:13:20;100060;;;
74485;BMP280;62942;52.462;10.846;2023-05-10T00:14:20;100070;;;
74485;BMP280;62942;52.462;10.846;2023-05-10T00:15:30;100060;;;
74485;BMP280;62942;52.462;10.846;2023-05-10T00:16:40;100060;;;
74485;BMP280;62942;52.462;10.846;2023-05-10T00:17:40;100060;;;
74485;BMP280;62942;52.462;10.846;2023-05-10T00:18:50;100060;;;
74485;BMP280;62942;52.462;10.846;2023-05-10T00:19:50;100050;;;
74485;BMP280;62942;52.462;10.846;2023-05-10T00:21:00;100040;;;
74485;BMP280;62942;52.462;10.846;2023-05-10T00:22:10;100050;;;
74485;BMP280;62942;52.462;10.846;2023-05-10T00:23:20;100040;;;
74485;BMP280;62942;52.462;10.846;2023-05-10T00:24:20;100030;;;
74485;BMP280;62942;52.462;10.846;2023-05-10T00:25:30;100030;;;
74485;BMP280;62942;52.462;10.846;2023-05-10T00:26:40;100030;;;
74485;BMP280;62942;52.462;10.846;2023-05-10T00:27:50;100040;;;
74485;BMP280;62942;52.462;10.846;2023-05-10T00:28:50;100050;;;
74485;BMP280;62942;52.462;10.846;2023-05-10T00:30:00;100040;;;
74485;BMP280;62942;52.462;10.846;2023-05-10T00:31:10;100040;;;
74485;BMP280;62942;52.462;10.846;2023-05-10T00:32:20;100040;;;
74485;BMP280;62942;52.462;10.846;2023-05-10T00:33:30;100030;;;
74485;BMP280;62942;52.462;10.846;2023-05-10T00:34:40;100040;;;
74485;BMP280;62942;52.462;10.846;2023-05-10T00:35:40;100040;;;
74485;BMP280;62942;52.462;10.846;2023-05-10T00:36:50;100040;;;
74485;BMP280;62942;52.462;10.846;2023-05-10T00:37:59;100030;;;
74485;BMP280;62942;52.462;10.846;2023-05-10T00:38:59;100040;;;
74485;BMP280;62942;52.462;10.846;2023-05-10T00:40:00;100030;;;
74485;BMP280;62942;52.462;10.846;2023-05-10T00:41:09;100030;;;
74485;BMP280;62942;52.462;10.846;2023-05-10T00:42:10;100030;;;
74485;BMP280;62942;52.462;10.846;2023-05-10T00:43:20;100030;;;
74485;BMP280;62942;52.462;10.846;2023-05-10T00:44:30;100030;;;
74485;BMP280;62942;52.462;10.846;2023-05-10T00:45:40;100030;;;
74485;BMP280;62942;52.462;10.846;2023-05-10T00:46:50;100020;;;
74485;BMP280;62942;52.462;10.846;2023-05-10T00:48:00;100010;;;
74485;BMP280;62942;52.462;10.846;2023-05-10T00:49:09;100010;;;
74485;BMP280;62942;52.462;10.846;2023-05-10T00:50:09;100010;;;
74485;BMP280;62942;52.462;10.846;2023-05-10T00:51:10;100020;;;
74485;BMP280;62942;52.462;10.846;2023-05-10T00:52:20;100020;;;
74485;BMP280;62942;52.462;10.846;2023-05-10T00:53:30;100020;;;
74485;BMP280;62942;52.462;10.846;2023-05-10T00:54:39;100020;;;
74485;BMP280;62942;52.462;10.846;2023-05-10T00:55:49;100020;;;
74485;BMP280;62942;52.462;10.846;2023-05-10T00:56:50;100020;;;
74485;BMP280;62942;52.462;10.846;2023-05-10T00:57:59;100020;;;
74485;BMP280;62942;52.462;10.846;2023-05-10T00:59:09;100010;;;
74485;BMP280;62942;52.462;10.846;2023-05-10T01:00:20;100020;;;
74485;BMP280;62942;52.462;10.846;2023-05-10T01:01:29;100020;;;
74485;BMP280;62942;52.462;10.846;2023-05-10T01:02:39;100020;;;
74485;BMP280;62942;52.462;10.846;2023-05-10T01:03:49;100020;;;
74485;BMP280;62942;52.462;10.846;2023-05-10T01:04:59;100020;;;
74485;BMP280;62942;52.462;10.846;2023-05-10T01:06:09;100020;;;
74485;BMP280;62942;52.462;10.846;2023-05-10T01:07:19;100020;;;
74485;BMP280;62942;52.462;10.846;2023-05-10T01:08:29;100020;;;
74485;BMP280;62942;52.462;10.846;2023-05-10T01:09:39;100020;;;
74485;BMP280;62942;52.462;10.846;2023-05-10T01:10:49;100020;;;
74485;BMP280;62942;52.462;10.846;2023-05-10T01:11:59;100010;;;
74485;BMP280;62942;52.462;10.846;2023-05-10T01:13:09;100010;;;
74485;BMP280;62942;52.462;10.846;2023-05-10T01:14:20;100020;;;
74485;BMP280;62942;52.462;10.846;2023-05-10T01:15:29;100020;;;
74485;BMP280;62942;52.462;10.846;2023-05-10T01:16:40;100020;;;
74485;BMP280;62942;52.462;10.846;2023-05-10T01:17:49;100020;;;
74485;BMP280;62942;52.462;10.846;2023-05-10T01:18:59;100020;;;
74485;BMP280;62942;52.462;10.846;2023-05-10T01:20:10;100020;;;
74485;BMP280;62942;52.462;10.846;2023-05-10T01:21:22;100020;;;
74485;BMP280;62942;52.462;10.846;2023-05-10T01:22:37;100020;;;
74485;BMP280;62942;52.462;10.846;2023-05-10T01:23:44;100020;;;
74485;BMP280;62942;52.462;10.846;2023-05-10T01:24:59;100020;;;
74485;BMP280;62942;52.462;10.846;2023-05-10T01:26:13;100020;;;
74485;BMP280;62942;52.462;10.846;2023-05-10T01:27:14;100030;;;
74485;BMP280;62942;52.462;10.846;2023-05-10T01:28:25;100030;;;
74485;BMP280;62942;52.462;10.846;2023-05-10T01:29:39;100030;;;
74485;BMP280;62942;52.462;10.846;2023-05-10T01:31:02;100030;;;
74485;BMP280;62942;52.462;10.846;2023-05-10T01:31:58;100030;;;
74485;BMP280;62942;52.462;10.846;2023-05-10T01:33:00;100020;;;
74485;BMP280;62942;52.462;10.846;2023-05-10T01:34:11;100030;;;
74485;BMP280;62942;52.462;10.846;2023-05-10T01:35:21;100040;;;
74485;BMP280;62942;52.462;10.846;2023-05-10T01:36:30;100040;;;
74485;BMP280;62942;52.462;10.846;2023-05-10T01:37:32;100040;;;
74485;BMP280;62942;52.462;10.846;2023-05-10T01:38:41;100040;;;
74485;BMP280;62942;52.462;10.846;2023-05-10T01:39:51;100030;;;
74485;BMP280;62942;52.462;10.846;2023-05-10T01:41:01;100030;;;
74485;BMP280;62942;52.462;10.846;2023-05-10T01:42:10;100020;;;
74485;BMP280;62942;52.462;10.846;2023-05-10T01:43:21;100020;;;
74485;BMP280;62942;52.462;10.846;2023-05-10T01:44:21;100020;;;
74485;BMP280;62942;52.462;10.846;2023-05-10T01:45:30;100020;;;
74485;BMP280;62942;52.462;10.846;2023-05-10T01:46:39;100020;;;
74485;BMP280;62942;52.462;10.846;2023-05-10T01:47:50;100020;;;
74485;BMP280;62942;52.462;10.846;2023-05-10T01:48:59;100020;;;
74485;BMP280;62942;52.462;10.846;2023-05-10T01:50:01;100020;;;
74485;BMP280;62942;52.462;10.846;2023-05-10T01:51:09;100020;;;
74485;BMP280;62942;52.462;10.846;2023-05-10T01:52:10;100020;;;
74485;BMP280;62942;52.462;10.846;2023-05-10T01:53:19;100010;;;
74485;BMP280;62942;52.462;10.846;2023-05-10T01:54:20;100020;;;
74485;BMP280;62942;52.462;10.846;2023-05-10T01:55:30;100020;;;
74485;BMP280;62942;52.462;10.846;2023-05-10T01:56:39;100020;;;
74485;BMP280;62942;52.462;10.846;2023-05-10T01:57:51;100010;;;
74485;BMP280;62942;52.462;10.846;2023-05-10T01:58:49;100020;;;
74485;BMP280;62942;52.462;10.846;2023-05-10T02:00:00;100010;;;
74485;BMP280;62942;52.462;10.846;2023-05-10T02:01:09;100010;;;
74485;BMP280;62942;52.462;10.846;2023-05-10T02:02:09;100010;;;
74485;BMP280;62942;52.462;10.846;2023-05-10T02:03:10;100020;;;
74485;BMP280;62942;52.462;10.846;2023-05-10T02:04:19;100020;;;
74485;BMP280;62942;52.462;10.846;2023-05-10T02:05:19;100020;;;
74485;BMP280;62942;52.462;10.846;2023-05-10T02:06:29;100020;;;
74485;BMP280;62942;52.462;10.846;2023-05-10T02:07:39;100020;;;
74485;BMP280;62942;52.462;10.846;2023-05-10T02:08:49;100020;;;
74485;BMP280;62942;52.462;10.846;2023-05-10T02:09:59;100010;;;
74485;BMP280;62942;52.462;10.846;2023-05-10T02:10:59;100020;;;
74485;BMP280;62942;52.462;10.846;2023-05-10T02:12:09;100010;;;
74485;BMP280;62942;52.462;10.846;2023-05-10T02:13:19;100020;;;
74485;BMP280;62942;52.462;10.846;2023-05-10T02:14:19;100020;;;
74485;BMP280;62942;52.462;10.846;2023-05-10T02:15:29;100010;;;
74485;BMP280;62942;52.462;10.846;2023-05-10T02:16:39;100020;;;
74485;BMP280;62942;52.462;10.846;2023-05-10T02:17:50;100020;;;
74485;BMP280;62942;52.462;10.846;2023-05-10T02:18:59;100020;;;
74485;BMP280;62942;52.462;10.846;2023-05-10T02:19:59;100020;;;
74485;BMP280;62942;52.462;10.846;2023-05-10T02:21:10;100020;;;
74485;BMP280;62942;52.462;10.846;2023-05-10T02:22:19;100020;;;
74485;BMP280;62942;52.462;10.846;2023-05-10T02:23:29;100020;;;
74485;BMP280;62942;52.462;10.846;2023-05-10T02:24:39;100020;;;
74485;BMP280;62942;52.462;10.846;2023-05-10T02:25:49;100010;;;
74485;BMP280;62942;52.462;10.846;2023-05-10T02:26:59;100020;;;
74485;BMP280;62942;52.462;10.846;2023-05-10T02:28:09;100000;;;
74485;BMP280;62942;52.462;10.846;2023-05-10T02:29:19;100010;;;
74485;BMP280;62942;52.462;10.846;2023-05-10T02:30:30;100010;;;
74485;BMP280;62942;52.462;10.846;2023-05-10T02:31:39;100000;;;
74485;BMP280;62942;52.462;10.846;2023-05-10T02:32:49;100000;;;
74485;BMP280;62942;52.462;10.846;2023-05-10T02:33:49;100020;;;
74485;BMP280;62942;52.462;10.846;2023-05-10T02:34:49;100020;;;
74485;BMP280;62942;52.462;10.846;2023-05-10T02:35:59;100020;;;
74485;BMP280;62942;52.462;10.846;2023-05-10T02:36:59;100010;;;
74485;BMP280;62942;52.462;10.846;2023-05-10T02:37:59;100020;;;
74485;BMP280;62942;52.462;10.846;2023-05-10T02:38:59;100020;;;
74485;BMP280;62942;52.462;10.846;2023-05-10T02:40:09;100010;;;
74485;BMP280;62942;52.462;10.846;2023-05-10T02:41:09;100010;;;
74485;BMP280;62942;52.462;10.846;2023-05-10T02:42:19;100010;;;
74485;BMP280;62942;52.462;10.846;2023-05-10T02:43:19;100020;;;
74485;BMP280;62942;52.462;10.846;2023-05-10T02:44:19;100020;;;
74485;BMP280;62942;52.462;10.846;2023-05-10T02:45:20;100020;;;
74485;BMP280;62942;52.462;10.846;2023-05-10T02:46:29;100020;;;
74485;BMP280;62942;52.462;10.846;2023-05-10T02:47:39;100020;;;
74485;BMP280;62942;52.462;10.846;2023-05-10T02:48:49;100010;;;
74485;BMP280;62942;52.462;10.846;2023-05-10T02:49:59;100010;;;
74485;BMP280;62942;52.462;10.846;2023-05-10T02:51:00;100010;;;
74485;BMP280;62942;52.462;10.846;2023-05-10T02:52:09;100010;;;
74485;BMP280;62942;52.462;10.846;2023-05-10T02:53:21;100010;;;
74485;BMP280;62942;52.462;10.846;2023-05-10T02:54:20;100010;;;
74485;BMP280;62942;52.462;10.846;2023-05-10T02:55:31;100000;;;
74485;BMP280;62942;52.462;10.846;2023-05-10T02:56:31;100010;;;
74485;BMP280;62942;52.462;10.846;2023-05-10T02:57:40;100010;;;
74485;BMP280;62942;52.462;10.846;2023-05-10T02:58:39;100010;;;
74485;BMP280;62942;52.462;10.846;2023-05-10T02:59:39;100010;;;
74485;BMP280;62942;52.462;10.846;2023-05-10T03:00:49;100010;;;
74485;BMP280;62942;52.462;10.846;2023-05-10T03:01:59;100010;;;
74485;BMP280;62942;52.462;10.846;2023-05-10T03:02:59;100010;;;
74485;BMP280;62942;52.462;10.846;2023-05-10T03:04:09;100000;;;
74485;BMP280;62942;52.462;10.846;2023-05-10T03:05:19;100000;;;
74485;BMP280;62942;52.462;10.846;2023-05-10T03:06:29;100010;;;
74485;BMP280;62942;52.462;10.846;2023-05-10T03:07:39;100010;;;
74485;BMP280;62942;52.462;10.846;2023-05-10T03:08:49;100010;;;
74485;BMP280;62942;52.462;10.846;2023-05-10T03:09:49;100010;;;
74485;BMP280;62942;52.462;10.846;2023-05-10T03:11:04;100000;;;
74485;BMP280;62942;52.462;10.846;2023-05-10T03:12:11;100000;;;
74485;BMP280;62942;52.462;10.846;2023-05-10T03:13:13;99990;;;
74485;BMP280;62942;52.462;10.846;2023-05-10T03:14:21;99990;;;
74485;BMP280;62942;52.462;10.846;2023-05-10T03:15:31;100010;;;
74485;BMP280;62942;52.462;10.846;2023-05-10T03:16:41;100000;;;
74485;BMP280;62942;52.462;10.846;2023-05-10T03:17:52;100010;;;
74485;BMP280;62942;52.462;10.846;2023-05-10T03:19:01;100000;;;
74485;BMP280;62942;52.462;10.846;2023-05-10T03:20:02;100000;;;
74485;BMP280;62942;52.462;10.846;2023-05-10T03:21:10;99990;;;
74485;BMP280;62942;52.462;10.846;2023-05-10T03:22:21;99990;;;
74485;BMP280;62942;52.462;10.846;2023-05-10T03:23:30;99990;;;
74485;BMP280;62942;52.462;10.846;2023-05-10T03:24:29;100000;;;
74485;BMP280;62942;52.462;10.846;2023-05-10T03:25:29;99990;;;
74485;BMP280;62942;52.462;10.846;2023-05-10T03:26:29;99990;;;
74485;BMP280;62942;52.462;10.846;2023-05-10T03:27:40;100000;;;
74485;BMP280;62942;52.462;10.846;2023-05-10T03:28:49;100000;;;
74485;BMP280;62942;52.462;10.846;2023-05-10T03:29:49;100000;;;
74485;BMP280;62942;52.462;10.846;2023-05-10T03:30:59;100000;;;
74485;BMP280;62942;52.462;10.846;2023-05-10T03:31:59;100000;;;
74485;BMP280;62942;52.462;10.846;2023-05-10T03:33:03;99990;;;
74485;BMP280;62942;52.462;10.846;2023-05-10T03:34:09;99990;;;
74485;BMP280;62942;52.462;10.846;2023-05-10T03:35:09;99990;;;
74485;BMP280;62942;52.462;10.846;2023-05-10T03:36:19;99990;;;
74485;BMP280;62942;52.462;10.846;2023-05-10T03:37:29;99980;;;
74485;BMP280;62942;52.462;10.846;2023-05-10T03:38:29;99990;;;
74485;BMP280;62942;52.462;10.846;2023-05-10T03:39:39;99990;;;
74485;BMP280;62942;52.462;10.846;2023-05-10T03:40:49;100000;;;
74485;BMP280;62942;52.462;10.846;2023-05-10T03:41:49;100000;;;
74485;BMP280;62942;52.462;10.846;2023-05-10T03:42:59;100000;;;
74485;BMP280;62942;52.462;10.846;2023-05-10T03:43:59;99990;;;
74485;BMP280;62942;52.462;10.846;2023-05-10T03:45:09;100000;;;
74485;BMP280;62942;52.462;10.846;2023-05-10T03:46:09;100000;;;
74485;BMP280;62942;52.462;10.846;2023-05-10T03:47:09;100000;;;
74485;BMP280;62942;52.462;10.846;2023-05-10T03:48:09;100000;;;
74485;BMP280;62942;52.462;10.846;2023-05-10T03:49:19;100000;;;
74485;BMP280;62942;52.462;10.846;2023-05-10T03:50:29;100010;;;
74485;BMP280;62942;52.462;10.846;2023-05-10T03:51:39;100010;;;
74485;BMP280;62942;52.462;10.846;2023-05-10T03:52:49;100000;;;
74485;BMP280;62942;52.462;10.846;2023-05-10T03:53:49;100010;;;
74485;BMP280;62942;52.462;10.846;2023-05-10T03:54:59;99990;;;
74485;BMP280;62942;52.462;10.846;2023-05-10T03:55:59;100000;;;
74485;BMP280;62942;52.462;10.846;2023-05-10T03:57:09;100010;;;
74485;BMP280;62942;52.462;10.846;2023-05-10T03:58:10;100000;;;
74485;BMP280;62942;52.462;10.846;2023-05-10T03:59:19;100000;;;
74485;BMP280;62942;52.462;10.846;2023-05-10T04:00:29;99990;;;
74485;BMP280;62942;52.462;10.846;2023-05-10T04:01:39;99980;;;
74485;BMP280;62942;52.462;10.846;2023-05-10T04:02:39;100000;;;
74485;BMP280;62942;52.462;10.846;2023-05-10T04:03:49;100000;;;
74485;BMP280;62942;52.462;10.846;2023-05-10T04:04:49;100000;;;
74485;BMP280;62942;52.462;10.846;2023-05-10T04:05:59;100000;;;
74485;BMP280;62942;52.462;10.846;2023-05-10T04:07:09;100000;;;
74485;BMP280;62942;52.462;10.846;2023-05-10T04:08:09;100000;;;
74485;BMP280;62942;52.462;10.846;2023-05-10T04:09:19;100000;;;
74485;BMP280;62942;52.462;10.846;2023-05-10T04:10:29;100000;;;
74485;BMP280;62942;52.462;10.846;2023-05-10T04:11:39;100000;;;
74485;BMP280;62942;52.462;10.846;2023-05-10T04:12:49;99990;;;
74485;BMP280;62942;52.462;10.846;2023-05-10T04:13:59;99990;;;
74485;BMP280;62942;52.462;10.846;2023-05-10T04:14:59;99990;;;
74485;BMP280;62942;52.462;10.846;2023-05-10T04:16:09;99990;;;
74485;BMP280;62942;52.462;10.846;2023-05-10T04:17:09;99990;;;
74485;BMP280;62942;52.462;10.846;2023-05-10T04:18:09;100000;;;
74485;BMP280;62942;52.462;10.846;2023-05-10T04:19:09;100000;;;
74485;BMP280;62942;52.462;10.846;2023-05-10T04:20:09;99990;;;
74485;BMP280;62942;52.462;10.846;2023-05-10T04:21:19;100000;;;
74485;BMP280;62942;52.462;10.846;2023-05-10T04:22:19;99990;;;
74485;BMP280;62942;52.462;10.846;2023-05-10T04:23:19;99990;;;
74485;BMP280;62942;52.462;10.846;2023-05-10T04:24:29;99990;;;
74485;BMP280;62942;52.462;10.846;2023-05-10T04:25:39;99990;;;
74485;BMP280;62942;52.462;10.846;2023-05-10T04:26:49;99990;;;
74485;BMP280;62942;52.462;10.846;2023-05-10T04:27:59;99990;;;
74485;BMP280;62942;52.462;10.846;2023-05-10T04:29:09;99990;;;
74485;BMP280;62942;52.462;10.846;2023-05-10T04:30:19;99990;;;
74485;BMP280;62942;52.462;10.846;2023-05-10T04:31:29;99990;;;
74485;BMP280;62942;52.462;10.846;2023-05-10T04:32:29;99990;;;
74485;BMP280;62942;52.462;10.846;2023-05-10T04:33:39;99990;;;
74485;BMP280;62942;52.462;10.846;2023-05-10T04:34:49;99990;;;
74485;BMP280;62942;52.462;10.846;2023-05-10T04:35:59;99980;;;
74485;BMP280;62942;52.462;10.846;2023-05-10T04:37:09;99980;;;
74485;BMP280;62942;52.462;10.846;2023-05-10T04:38:09;99970;;;
74485;BMP280;62942;52.462;10.846;2023-05-10T04:39:19;99970;;;
74485;BMP280;62942;52.462;10.846;2023-05-10T04:40:29;99970;;;
74485;BMP280;62942;52.462;10.846;2023-05-10T04:41:29;99970;;;
74485;BMP280;62942;52.462;10.846;2023-05-10T04:42:39;99970;;;
74485;BMP280;62942;52.462;10.846;2023-05-10T04:43:49;99980;;;
74485;BMP280;62942;52.462;10.846;2023-05-10T04:44:59;99980;;;
74485;BMP280;62942;52.462;10.846;2023-05-10T04:45:59;99980;;;
74485;BMP280;62942;52.462;10.846;2023-05-10T04:47:09;99970;;;
74485;BMP280;62942;52.462;10.846;2023-05-10T04:48:19;99970;;;
74485;BMP280;62942;52.462;10.846;2023-05-10T04:49:29;99970;;;
74485;BMP280;62942;52.462;10.846;2023-05-10T04:50:39;99980;;;
74485;BMP280;62942;52.462;10.846;2023-05-10T04:51:49;99980;;;
74485;BMP280;62942;52.462;10.846;2023-05-10T04:52:59;99990;;;
74485;BMP280;62942;52.462;10.846;2023-05-10T04:54:09;99990;;;
74485;BMP280;62942;52.462;10.846;2023-05-10T04:55:19;99990;;;
74485;BMP280;62942;52.462;10.846;2023-05-10T04:56:29;99990;;;
74485;BMP280;62942;52.462;10.846;2023-05-10T04:57:29;99990;;;
74485;BMP280;62942;52.462;10.846;2023-05-10T04:58:39;99990;;;
74485;BMP280;62942;52.462;10.846;2023-05-10T04:59:49;99990;;;
74485;BMP280;62942;52.462;10.846;2023-05-10T05:00:49;99980;;;
74485;BMP280;62942;52.462;10.846;2023-05-10T05:01:59;99990;;;
74485;BMP280;62942;52.462;10.846;2023-05-10T05:03:09;99990;;;
74485;BMP280;62942;52.462;10.846;2023-05-10T05:04:09;99990;;;
74485;BMP280;62942;52.462;10.846;2023-05-10T05:05:09;99990;;;
74485;BMP280;62942;52.462;10.846;2023-05-10T05:06:09;100000;;;
74485;BMP280;62942;52.462;10.846;2023-05-10T05:07:19;99990;;;
74485;BMP280;62942;52.462;10.846;2023-05-10T05:08:19;99990;;;
74485;BMP280;62942;52.462;10.846;2023-05-10T05:09:29;99990;;;
74485;BMP280;62942;52.462;10.846;2023-05-10T05:10:39;99990;;;
74485;BMP280;62942;52.462;10.846;2023-05-10T05:11:49;100000;;;
74485;BMP280;62942;52.462;10.846;2023-05-10T05:12:49;100000;;;
74485;BMP280;62942;52.462;10.846;2023-05-10T05:13:59;99990;;;
74485;BMP280;62942;52.462;10.846;2023-05-10T05:15:09;100000;;;
74485;BMP280;62942;52.462;10.846;2023-05-10T05:16:09;99990;;;
74485;BMP280;62942;52.462;10.846;2023-05-10T05:17:19;100000;;;
74485;BMP280;62942;52.462;10.846;2023-05-10T05:18:19;100000;;;
74485;BMP280;62942;52.462;10.846;2023-05-10T05:19:30;99990;;;
74485;BMP280;62942;52.462;10.846;2023-05-10T05:20:39;99990;;;
74485;BMP280;62942;52.462;10.846;2023-05-10T05:21:49;99990;;;
74485;BMP280;62942;52.462;10.846;2023-05-10T05:22:49;100000;;;
74485;BMP280;62942;52.462;10.846;2023-05-10T05:23:59;100000;;;
74485;BMP280;62942;52.462;10.846;2023-05-10T05:25:09;99990;;;
74485;BMP280;62942;52.462;10.846;2023-05-10T05:26:19;100000;;;
74485;BMP280;62942;52.462;10.846;2023-05-10T05:27:29;100000;;;
74485;BMP280;62942;52.462;10.846;2023-05-10T05:28:39;100000;;;
74485;BMP280;62942;52.462;10.846;2023-05-10T05:29:49;100000;;;
74485;BMP280;62942;52.462;10.846;2023-05-10T05:30:59;100000;;;
74485;BMP280;62942;52.462;10.846;2023-05-10T05:31:59;100000;;;
74485;BMP280;62942;52.462;10.846;2023-05-10T05:33:09;100010;;;
74485;BMP280;62942;52.462;10.846;2023-05-10T05:34:19;100010;;;
74485;BMP280;62942;52.462;10.846;2023-05-10T05:35:19;100010;;;
74485;BMP280;62942;52.462;10.846;2023-05-10T05:36:29;100010;;;
74485;BMP280;62942;52.462;10.846;2023-05-10T05:37:39;100010;;;
74485;BMP280;62942;52.462;10.846;2023-05-10T05:38:49;100010;;;
74485;BMP280;62942;52.462;10.846;2023-05-10T05:39:59;100010;;;
74485;BMP280;62942;52.462;10.846;2023-05-10T05:41:09;100010;;;
74485;BMP280;62942;52.462;10.846;2023-05-10T05:42:09;100010;;;
74485;BMP280;62942;52.462;10.846;2023-05-10T05:43:09;100010;;;
74485;BMP280;62942;52.462;10.846;2023-05-10T05:44:19;100010;;;
74485;BMP280;62942;52.462;10.846;2023-05-10T05:45:29;100020;;;
74485;BMP280;62942;52.462;10.846;2023-05-10T05:46:29;100010;;;
74485;BMP280;62942;52.462;10.846;2023-05-10T05:47:39;100020;;;
74485;BMP280;62942;52.462;10.846;2023-05-10T05:48:49;100010;;;
74485;BMP280;62942;52.462;10.846;2023-05-10T05:49:59;100020;;;
74485;BMP280;62942;52.462;10.846;2023-05-10T05:51:09;100020;;;
74485;BMP280;62942;52.462;10.846;2023-05-10T05:52:19;100020;;;
74485;BMP280;62942;52.462;10.846;2023-05-10T05:53:19;100020;;;
74485;BMP280;62942;52.462;10.846;2023-05-10T05:54:30;100020;;;
74485;BMP280;62942;52.462;10.846;2023-05-10T05:55:29;100020;;;
74485;BMP280;62942;52.462;10.846;2023-05-10T05:56:39;100020;;;
74485;BMP280;62942;52.462;10.846;2023-05-10T05:57:49;100020;;;
74485;BMP280;62942;52.462;10.846;2023-05-10T05:58:59;100020;;;
74485;BMP280;62942;52.462;10.846;2023-05-10T06:00:09;100020;;;
74485;BMP280;62942;52.462;10.846;2023-05-10T06:01:19;100020;;;
74485;BMP280;62942;52.462;10.846;2023-05-10T06:02:19;100020;;;
74485;BMP280;62942;52.462;10.846;2023-05-10T06:03:29;100030;;;
74485;BMP280;62942;52.462;10.846;2023-05-10T06:04:39;100020;;;
74485;BMP280;62942;52.462;10.846;2023-05-10T06:05:49;100020;;;
74485;BMP280;62942;52.462;10.846;2023-05-10T06:06:59;100020;;;
74485;BMP280;62942;52.462;10.846;2023-05-10T06:08:09;100020;;;
74485;BMP280;62942;52.462;10.846;2023-05-10T06:09:09;100020;;;
74485;BMP280;62942;52.462;10.846;2023-05-10T06:10:19;100020;;;
74485;BMP280;62942;52.462;10.846;2023-05-10T06:12:39;100020;;;
74485;BMP280;62942;52.462;10.846;2023-05-10T06:13:39;100020;;;
74485;BMP280;62942;52.462;10.846;2023-05-10T06:14:49;100030;;;
74485;BMP280;62942;52.462;10.846;2023-05-10T06:15:49;100030;;;
74485;BMP280;62942;52.462;10.846;2023-05-10T06:16:59;100030;;;
74485;BMP280;62942;52.462;10.846;2023-05-10T06:17:59;100030;;;
74485;BMP280;62942;52.462;10.846;2023-05-10T06:19:09;100010;;;
74485;BMP280;62942;52.462;10.846;2023-05-10T06:20:19;100020;;;
74485;BMP280;62942;52.462;10.846;2023-05-10T06:21:19;100020;;;
74485;BMP280;62942;52.462;10.846;2023-05-10T06:22:29;100020;;;
74485;BMP280;62942;52.462;10.846;2023-05-10T06:23:39;100020;;;
74485;BMP280;62942;52.462;10.846;2023-05-10T06:24:49;100030;;;
74485;BMP280;62942;52.462;10.846;2023-05-10T06:25:59;100020;;;
74485;BMP280;62942;52.462;10.846;2023-05-10T06:26:59;100020;;;
74485;BMP280;62942;52.462;10.846;2023-05-10T06:27:59;100020;;;
74485;BMP280;62942;52.462;10.846;2023-05-10T06:30:19;100020;;;
74485;BMP280;62942;52.462;10.846;2023-05-10T06:31:29;100030;;;
74485;BMP280;62942;52.462;10.846;2023-05-10T06:32:39;100030;;;
74485;BMP280;62942;52.462;10.846;2023-05-10T06:33:49;100030;;;
74485;BMP280;62942;52.462;10.846;2023-05-10T06:34:59;100030;;;
74485;BMP280;62942;52.462;10.846;2023-05-10T06:36:09;100030;;;
74485;BMP280;62942;52.462;10.846;2023-05-10T06:37:19;100030;;;
74485;BMP280;62942;52.462;10.846;2023-05-10T06:38:19;100040;;;
74485;BMP280;62942;52.462;10.846;2023-05-10T06:39:29;100040;;;
74485;BMP280;62942;52.462;10.846;2023-05-10T06:40:29;100030;;;
74485;BMP280;62942;52.462;10.846;2023-05-10T06:41:39;100030;;;
74485;BMP280;62942;52.462;10.846;2023-05-10T06:42:49;100030;;;
74485;BMP280;62942;52.462;10.846;2023-05-10T06:43:59;100030;;;
74485;BMP280;62942;52.462;10.846;2023-05-10T06:44:59;100030;;;
74485;BMP280;62942;52.462;10.846;2023-05-10T06:46:09;100030;;;
74485;BMP280;62942;52.462;10.846;2023-05-10T06:47:19;100030;;;
74485;BMP280;62942;52.462;10.846;2023-05-10T06:48:19;100030;;;
74485;BMP280;62942;52.462;10.846;2023-05-10T06:49:29;100030;;;
74485;BMP280;62942;52.462;10.846;2023-05-10T06:50:39;100030;;;
74485;BMP280;62942;52.462;10.846;2023-05-10T06:51:49;100040;;;
74485;BMP280;62942;52.462;10.846;2023-05-10T06:52:49;100040;;;
74485;BMP280;62942;52.462;10.846;2023-05-10T06:53:49;100040;;;
74485;BMP280;62942;52.462;10.846;2023-05-10T06:54:59;100050;;;
74485;BMP280;62942;52.462;10.846;2023-05-10T06:56:09;100040;;;
74485;BMP280;62942;52.462;10.846;2023-05-10T06:57:19;100040;;;
74485;BMP280;62942;52.462;10.846;2023-05-10T06:58:19;100040;;;
74485;BMP280;62942;52.462;10.846;2023-05-10T06:59:29;100050;;;
74485;BMP280;62942;52.462;10.846;2023-05-10T07:00:39;100040;;;
74485;BMP280;62942;52.462;10.846;2023-05-10T07:01:49;100050;;;
74485;BMP280;62942;52.462;10.846;2023-05-10T07:02:49;100050;;;
74485;BMP280;62942;52.462;10.846;2023-05-10T07:03:59;100050;;;
74485;BMP280;62942;52.462;10.846;2023-05-10T07:05:09;100050;;;
74485;BMP280;62942;52.462;10.846;2023-05-10T07:06:09;100050;;;
74485;BMP280;62942;52.462;10.846;2023-05-10T07:07:19;100050;;;